»·PEaware :: SKW4332 KEKO-KSLC

SKW4332 :: KEKO-KSLC

FLIGHT INFORMATION

Flight Status: Arrived
Operator:
SkyWest Airlines
More flights by this operator :: More flights under this callsign
Pilot: Anonymous 11975 (11975)
Aircraft: CANADAIR CL-600 CRJ-900
(CRJ9)
More flights by this aircraft type
Origin: KEKO Elko Regl
United States
Destination: KSLC Salt Lake City Intl
United States
More flights between these airports :: More routes between these airports
Route: BQU V32 BVL WAATS5
File this flight plan on PilotEdge
Remarks:
Altitude:
(Current/Filed)
27,000ft
Speed:
(Current/Filed)
428kts
Departed: 19-Sep-22 01:32 PM
Arrived: 19-Sep-22 02:09 PM
Distance/Time
Traveled:
172nm/0:37
Distance/Time
To Go:
Arrived

Flight Plot

Page will automatically refresh every two minutes.

Flight plan parsing failed; only flown route is shown


Map Options




Map Legend


Flown Route
Filed Route
Departure Airport
Arrival Airport
Navaid (VOR, NDB)
Fix

Horizontal Profiles

Position Reports

Time Latitude Longitude Heading Altitude Ground
Speed
19-Sep-22 13:12 40.826908 -115.786433 13 5083ft 0kts
19-Sep-22 13:13 40.826908 -115.786433 13 5083ft 0kts
19-Sep-22 13:14 40.826908 -115.786433 13 5083ft 0kts
19-Sep-22 13:15 40.826908 -115.786433 13 5083ft 0kts
19-Sep-22 13:16 40.826908 -115.786433 13 5083ft 0kts
19-Sep-22 13:17 40.826908 -115.786433 13 5083ft 0kts
19-Sep-22 13:18 40.826908 -115.786433 13 5083ft 0kts
19-Sep-22 13:19 40.826908 -115.786433 13 5083ft 0kts
19-Sep-22 13:20 40.826908 -115.786433 13 5083ft 0kts
19-Sep-22 13:21 40.826908 -115.786433 13 5083ft 0kts
19-Sep-22 13:22 40.826908 -115.786433 13 5083ft 0kts
19-Sep-22 13:23 40.826908 -115.786433 13 5083ft 0kts
19-Sep-22 13:24 40.826908 -115.786433 13 5083ft 0kts
19-Sep-22 13:25 40.826908 -115.786433 13 5092ft 0kts
19-Sep-22 13:26 40.826740 -115.786730 87 5081ft 2kts
19-Sep-22 13:27 40.826754 -115.786945 98 5082ft 0kts
19-Sep-22 13:28 40.826754 -115.786945 98 5082ft 0kts
19-Sep-22 13:29 40.826250 -115.785532 65 5075ft 14kts
19-Sep-22 13:30 40.827434 -115.781501 82 5078ft 11kts
19-Sep-22 13:31 40.825218 -115.785071 248 5072ft 80kts
19-Sep-22 13:32 40.807961 -115.837991 226 6880ft 174kts
19-Sep-22 13:33 40.763620 -115.809704 118 8931ft 228kts
19-Sep-22 13:34 40.748744 -115.715336 83 11079ft 307kts
19-Sep-22 13:35 40.760114 -115.601899 97 14135ft 320kts
19-Sep-22 13:36 40.756872 -115.480540 98 16910ft 342kts
19-Sep-22 13:37 40.755225 -115.351918 97 19405ft 360kts
19-Sep-22 13:38 40.753718 -115.216769 97 21878ft 377kts
19-Sep-22 13:39 40.751834 -115.075814 97 24148ft 391kts
19-Sep-22 13:40 40.749672 -114.929873 97 25945ft 405kts
19-Sep-22 13:41 40.747067 -114.776037 97 26825ft 445kts
19-Sep-22 13:42 40.743888 -114.603549 94 26864ft 483kts
19-Sep-22 13:43 40.741069 -114.425263 98 26851ft 489kts
19-Sep-22 13:44 40.738738 -114.245018 97 26947ft 491kts
19-Sep-22 13:45 40.732483 -114.065362 97 26980ft 490kts
19-Sep-22 13:46 40.729635 -113.885346 96 26944ft 489kts
19-Sep-22 13:47 40.724864 -113.707443 95 26218ft 485kts
19-Sep-22 13:48 40.726168 -113.531665 93 24116ft 482kts
19-Sep-22 13:49 40.725299 -113.357219 94 21387ft 469kts
19-Sep-22 13:50 40.724762 -113.189435 94 18609ft 447kts
19-Sep-22 13:51 40.722898 -113.029179 94 16940ft 429kts
19-Sep-22 13:52 40.722612 -112.870947 94 16853ft 432kts
19-Sep-22 13:53 40.721194 -112.713108 94 15769ft 428kts
19-Sep-22 13:55 40.719601 -112.557689 94 14521ft 422kts
19-Sep-22 13:56 40.716181 -112.405493 96 13160ft 406kts
19-Sep-22 13:57 40.711104 -112.257953 95 12074ft 399kts
19-Sep-22 13:58 40.748069 -112.128917 29 11970ft 380kts
19-Sep-22 13:59 40.839277 -112.110905 3 11975ft 293kts
19-Sep-22 14:00 40.918900 -112.109738 351 10568ft 280kts
19-Sep-22 14:01 40.993678 -112.121056 351 8953ft 263kts
19-Sep-22 14:02 41.064672 -112.123727 29 8042ft 253kts
19-Sep-22 14:03 41.060701 -112.050907 139 8085ft 233kts
19-Sep-22 14:04 41.004668 -112.022447 177 7990ft 199kts
19-Sep-22 14:05 40.950701 -112.015806 178 6787ft 212kts
19-Sep-22 14:06 40.896029 -112.009600 177 5991ft 184kts
19-Sep-22 14:07 40.849876 -112.004062 176 5141ft 138kts
19-Sep-22 14:08 40.811318 -111.999672 176 4355ft 138kts
19-Sep-22 14:09 40.791079 -111.995961 115 4235ft 9kts

Navigation Log

Ident Type
Flight plan parsing failed, navigation log unavailable